sensor_id;sensor_type;location;lat;lon;timestamp;P1;durP1;ratioP1;P2;durP2;ratioP2
39102;SDS011;24847;48.218;16.414;2023-02-03T00:05:04;3.08;;;1.98;;
39102;SDS011;24847;48.218;16.414;2023-02-03T00:10:08;3.30;;;1.70;;
39102;SDS011;24847;48.218;16.414;2023-02-03T00:15:11;3.55;;;1.55;;
39102;SDS011;24847;48.218;16.414;2023-02-03T00:20:15;3.90;;;2.00;;
39102;SDS011;24847;48.218;16.414;2023-02-03T00:25:17;3.20;;;1.90;;
39102;SDS011;24847;48.218;16.414;2023-02-03T00:30:20;4.00;;;2.17;;
39102;SDS011;24847;48.218;16.414;2023-02-03T00:35:24;3.00;;;2.08;;
39102;SDS011;24847;48.218;16.414;2023-02-03T00:40:26;3.13;;;1.88;;
39102;SDS011;24847;48.218;16.414;2023-02-03T00:45:29;2.30;;;1.60;;
39102;SDS011;24847;48.218;16.414;2023-02-03T00:50:33;2.05;;;1.75;;
39102;SDS011;24847;48.218;16.414;2023-02-03T00:55:35;2.70;;;1.92;;
39102;SDS011;24847;48.218;16.414;2023-02-03T01:00:37;2.55;;;2.15;;
39102;SDS011;24847;48.218;16.414;2023-02-03T01:05:41;3.10;;;2.10;;
39102;SDS011;24847;48.218;16.414;2023-02-03T01:10:43;3.22;;;2.20;;
39102;SDS011;24847;48.218;16.414;2023-02-03T01:15:45;2.50;;;2.17;;
39102;SDS011;24847;48.218;16.414;2023-02-03T01:20:49;2.33;;;2.13;;
39102;SDS011;24847;48.218;16.414;2023-02-03T01:25:52;2.45;;;2.10;;
39102;SDS011;24847;48.218;16.414;2023-02-03T01:30:54;2.28;;;1.92;;
39102;SDS011;24847;48.218;16.414;2023-02-03T01:36:00;2.00;;;1.83;;
39102;SDS011;24847;48.218;16.414;2023-02-03T01:41:04;2.58;;;1.80;;
39102;SDS011;24847;48.218;16.414;2023-02-03T01:46:15;2.22;;;1.90;;
39102;SDS011;24847;48.218;16.414;2023-02-03T01:51:27;2.92;;;1.90;;
39102;SDS011;24847;48.218;16.414;2023-02-03T01:56:31;2.50;;;1.40;;
39102;SDS011;24847;48.218;16.414;2023-02-03T02:01:37;3.13;;;1.90;;
39102;SDS011;24847;48.218;16.414;2023-02-03T02:06:41;2.20;;;1.95;;
39102;SDS011;24847;48.218;16.414;2023-02-03T02:11:47;2.00;;;1.77;;
39102;SDS011;24847;48.218;16.414;2023-02-03T02:16:51;2.05;;;1.85;;
39102;SDS011;24847;48.218;16.414;2023-02-03T02:22:04;1.73;;;1.63;;
39102;SDS011;24847;48.218;16.414;2023-02-03T02:27:16;2.03;;;1.60;;
39102;SDS011;24847;48.218;16.414;2023-02-03T02:33:18;2.28;;;1.60;;
39102;SDS011;24847;48.218;16.414;2023-02-03T02:38:36;1.40;;;1.20;;
39102;SDS011;24847;48.218;16.414;2023-02-03T02:43:48;2.35;;;1.27;;
39102;SDS011;24847;48.218;16.414;2023-02-03T02:49:01;0.88;;;0.70;;
39102;SDS011;24847;48.218;16.414;2023-02-03T02:54:08;1.33;;;1.08;;
39102;SDS011;24847;48.218;16.414;2023-02-03T02:59:15;0.55;;;0.50;;
39102;SDS011;24847;48.218;16.414;2023-02-03T03:04:20;0.32;;;0.32;;
39102;SDS011;24847;48.218;16.414;2023-02-03T03:09:26;0.60;;;0.40;;
39102;SDS011;24847;48.218;16.414;2023-02-03T03:14:35;0.90;;;0.40;;
39102;SDS011;24847;48.218;16.414;2023-02-03T03:19:42;0.40;;;0.30;;
39102;SDS011;24847;48.218;16.414;2023-02-03T03:24:51;0.50;;;0.40;;
39102;SDS011;24847;48.218;16.414;2023-02-03T03:29:59;0.80;;;0.28;;
39102;SDS011;24847;48.218;16.414;2023-02-03T03:35:07;0.57;;;0.40;;
39102;SDS011;24847;48.218;16.414;2023-02-03T03:40:11;0.20;;;0.20;;
39102;SDS011;24847;48.218;16.414;2023-02-03T03:45:21;0.38;;;0.25;;
39102;SDS011;24847;48.218;16.414;2023-02-03T03:50:30;0.43;;;0.20;;
39102;SDS011;24847;48.218;16.414;2023-02-03T03:55:37;0.70;;;0.30;;
39102;SDS011;24847;48.218;16.414;2023-02-03T04:00:42;0.20;;;0.20;;
39102;SDS011;24847;48.218;16.414;2023-02-03T04:05:48;0.50;;;0.20;;
39102;SDS011;24847;48.218;16.414;2023-02-03T04:10:51;0.20;;;0.10;;
39102;SDS011;24847;48.218;16.414;2023-02-03T04:15:53;0.10;;;0.10;;
39102;SDS011;24847;48.218;16.414;2023-02-03T04:20:58;0.60;;;0.30;;
39102;SDS011;24847;48.218;16.414;2023-02-03T04:26:00;0.20;;;0.20;;
39102;SDS011;24847;48.218;16.414;2023-02-03T04:31:02;0.40;;;0.20;;
39102;SDS011;24847;48.218;16.414;2023-02-03T04:36:07;0.17;;;0.10;;
39102;SDS011;24847;48.218;16.414;2023-02-03T04:41:10;0.17;;;0.10;;
39102;SDS011;24847;48.218;16.414;2023-02-03T04:46:12;0.20;;;0.10;;
39102;SDS011;24847;48.218;16.414;2023-02-03T04:51:16;0.10;;;0.10;;
39102;SDS011;24847;48.218;16.414;2023-02-03T04:56:18;0.25;;;0.10;;
39102;SDS011;24847;48.218;16.414;2023-02-03T05:01:20;0.00;;;0.00;;
39102;SDS011;24847;48.218;16.414;2023-02-03T05:06:24;0.30;;;0.10;;
39102;SDS011;24847;48.218;16.414;2023-02-03T05:11:29;0.10;;;0.10;;
39102;SDS011;24847;48.218;16.414;2023-02-03T05:16:31;0.30;;;0.20;;
39102;SDS011;24847;48.218;16.414;2023-02-03T05:21:35;0.13;;;0.10;;
39102;SDS011;24847;48.218;16.414;2023-02-03T05:26:37;0.32;;;0.20;;
39102;SDS011;24847;48.218;16.414;2023-02-03T05:31:39;0.30;;;0.15;;
39102;SDS011;24847;48.218;16.414;2023-02-03T05:36:43;0.52;;;0.30;;
39102;SDS011;24847;48.218;16.414;2023-02-03T05:41:45;0.80;;;0.50;;
39102;SDS011;24847;48.218;16.414;2023-02-03T05:46:55;1.13;;;0.50;;
39102;SDS011;24847;48.218;16.414;2023-02-03T05:51:59;0.55;;;0.30;;
39102;SDS011;24847;48.218;16.414;2023-02-03T05:57:02;0.47;;;0.32;;
39102;SDS011;24847;48.218;16.414;2023-02-03T06:02:04;0.40;;;0.30;;
39102;SDS011;24847;48.218;16.414;2023-02-03T06:07:08;0.75;;;0.38;;
39102;SDS011;24847;48.218;16.414;2023-02-03T06:12:10;0.28;;;0.20;;
39102;SDS011;24847;48.218;16.414;2023-02-03T06:17:13;0.50;;;0.40;;
39102;SDS011;24847;48.218;16.414;2023-02-03T06:22:16;0.25;;;0.20;;
39102;SDS011;24847;48.218;16.414;2023-02-03T06:27:18;0.43;;;0.28;;
39102;SDS011;24847;48.218;16.414;2023-02-03T06:32:21;1.40;;;0.55;;
39102;SDS011;24847;48.218;16.414;2023-02-03T06:37:24;0.98;;;0.70;;
39102;SDS011;24847;48.218;16.414;2023-02-03T06:42:27;0.70;;;0.50;;
39102;SDS011;24847;48.218;16.414;2023-02-03T06:47:29;0.60;;;0.50;;
39102;SDS011;24847;48.218;16.414;2023-02-03T06:52:33;0.40;;;0.35;;
39102;SDS011;24847;48.218;16.414;2023-02-03T06:57:41;0.82;;;0.40;;
39102;SDS011;24847;48.218;16.414;2023-02-03T07:02:45;1.80;;;0.80;;
39102;SDS011;24847;48.218;16.414;2023-02-03T07:07:55;0.90;;;0.50;;
39102;SDS011;24847;48.218;16.414;2023-02-03T07:13:00;0.57;;;0.32;;
39102;SDS011;24847;48.218;16.414;2023-02-03T07:18:04;2.15;;;0.50;;
39102;SDS011;24847;48.218;16.414;2023-02-03T07:23:07;1.63;;;0.50;;
39102;SDS011;24847;48.218;16.414;2023-02-03T07:28:10;1.08;;;0.73;;
39102;SDS011;24847;48.218;16.414;2023-02-03T07:33:12;0.63;;;0.32;;
39102;SDS011;24847;48.218;16.414;2023-02-03T07:38:16;2.92;;;0.43;;
39102;SDS011;24847;48.218;16.414;2023-02-03T07:43:19;1.05;;;0.50;;
39102;SDS011;24847;48.218;16.414;2023-02-03T07:48:21;1.10;;;0.77;;
39102;SDS011;24847;48.218;16.414;2023-02-03T07:53:25;1.02;;;0.52;;
39102;SDS011;24847;48.218;16.414;2023-02-03T07:58:28;1.58;;;0.90;;
39102;SDS011;24847;48.218;16.414;2023-02-03T08:03:31;1.77;;;0.70;;
39102;SDS011;24847;48.218;16.414;2023-02-03T08:08:35;1.45;;;0.60;;
39102;SDS011;24847;48.218;16.414;2023-02-03T08:13:37;1.50;;;0.60;;
39102;SDS011;24847;48.218;16.414;2023-02-03T08:18:40;1.27;;;0.60;;
39102;SDS011;24847;48.218;16.414;2023-02-03T08:23:43;0.60;;;0.38;;
39102;SDS011;24847;48.218;16.414;2023-02-03T08:28:47;1.08;;;0.82;;
39102;SDS011;24847;48.218;16.414;2023-02-03T08:33:50;1.05;;;0.60;;
39102;SDS011;24847;48.218;16.414;2023-02-03T08:38:53;1.08;;;0.65;;
39102;SDS011;24847;48.218;16.414;2023-02-03T08:43:56;1.05;;;0.70;;
39102;SDS011;24847;48.218;16.414;2023-02-03T08:48:58;1.30;;;0.70;;
39102;SDS011;24847;48.218;16.414;2023-02-03T08:54:03;1.33;;;0.70;;
39102;SDS011;24847;48.218;16.414;2023-02-03T08:59:06;1.30;;;0.85;;
39102;SDS011;24847;48.218;16.414;2023-02-03T09:04:08;0.75;;;0.75;;
39102;SDS011;24847;48.218;16.414;2023-02-03T09:09:12;1.05;;;0.70;;
39102;SDS011;24847;48.218;16.414;2023-02-03T09:14:14;1.70;;;1.40;;
39102;SDS011;24847;48.218;16.414;2023-02-03T09:19:17;1.90;;;1.10;;
39102;SDS011;24847;48.218;16.414;2023-02-03T09:24:20;3.75;;;1.10;;
39102;SDS011;24847;48.218;16.414;2023-02-03T09:29:23;3.05;;;1.00;;
39102;SDS011;24847;48.218;16.414;2023-02-03T09:34:25;1.52;;;0.80;;
39102;SDS011;24847;48.218;16.414;2023-02-03T09:39:29;2.60;;;0.63;;
39102;SDS011;24847;48.218;16.414;2023-02-03T09:44:33;2.13;;;0.70;;
39102;SDS011;24847;48.218;16.414;2023-02-03T09:49:46;1.10;;;0.75;;
39102;SDS011;24847;48.218;16.414;2023-02-03T09:54:53;0.70;;;0.50;;
39102;SDS011;24847;48.218;16.414;2023-02-03T10:00:02;1.73;;;0.70;;
39102;SDS011;24847;48.218;16.414;2023-02-03T10:05:19;2.00;;;0.45;;
39102;SDS011;24847;48.218;16.414;2023-02-03T10:10:36;5.45;;;3.15;;
39102;SDS011;24847;48.218;16.414;2023-02-03T10:15:47;1.85;;;1.13;;
39102;SDS011;24847;48.218;16.414;2023-02-03T10:21:12;1.57;;;0.77;;
39102;SDS011;24847;48.218;16.414;2023-02-03T10:26:20;1.50;;;0.60;;
39102;SDS011;24847;48.218;16.414;2023-02-03T10:31:29;2.28;;;0.57;;
39102;SDS011;24847;48.218;16.414;2023-02-03T10:36:42;0.60;;;0.40;;
39102;SDS011;24847;48.218;16.414;2023-02-03T10:41:56;0.85;;;0.55;;
39102;SDS011;24847;48.218;16.414;2023-02-03T10:46:59;1.48;;;0.73;;
39102;SDS011;24847;48.218;16.414;2023-02-03T10:52:01;1.38;;;0.77;;
39102;SDS011;24847;48.218;16.414;2023-02-03T10:57:06;0.85;;;0.52;;
39102;SDS011;24847;48.218;16.414;2023-02-03T11:02:20;2.47;;;0.80;;
39102;SDS011;24847;48.218;16.414;2023-02-03T11:07:26;0.73;;;0.40;;
39102;SDS011;24847;48.218;16.414;2023-02-03T11:12:32;1.92;;;1.30;;
39102;SDS011;24847;48.218;16.414;2023-02-03T11:17:35;1.63;;;0.60;;
39102;SDS011;24847;48.218;16.414;2023-02-03T11:22:37;1.23;;;0.40;;
39102;SDS011;24847;48.218;16.414;2023-02-03T11:27:44;1.00;;;0.43;;
39102;SDS011;24847;48.218;16.414;2023-02-03T11:32:46;3.17;;;0.70;;
39102;SDS011;24847;48.218;16.414;2023-02-03T11:37:51;1.23;;;0.47;;
39102;SDS011;24847;48.218;16.414;2023-02-03T11:43:00;0.90;;;0.50;;
39102;SDS011;24847;48.218;16.414;2023-02-03T11:48:12;1.27;;;0.60;;
39102;SDS011;24847;48.218;16.414;2023-02-03T11:53:31;0.80;;;0.47;;
39102;SDS011;24847;48.218;16.414;2023-02-03T12:04:44;0.88;;;0.50;;
39102;SDS011;24847;48.218;16.414;2023-02-03T12:10:04;1.08;;;0.50;;
39102;SDS011;24847;48.218;16.414;2023-02-03T12:15:26;1.05;;;0.68;;
39102;SDS011;24847;48.218;16.414;2023-02-03T12:20:49;0.88;;;0.50;;
39102;SDS011;24847;48.218;16.414;2023-02-03T12:26:08;0.63;;;0.40;;
39102;SDS011;24847;48.218;16.414;2023-02-03T12:31:23;1.00;;;0.60;;
39102;SDS011;24847;48.218;16.414;2023-02-03T12:36:34;1.15;;;0.40;;
39102;SDS011;24847;48.218;16.414;2023-02-03T12:41:41;2.13;;;0.50;;
39102;SDS011;24847;48.218;16.414;2023-02-03T12:46:51;1.83;;;0.50;;
39102;SDS011;24847;48.218;16.414;2023-02-03T12:52:03;3.33;;;0.68;;
39102;SDS011;24847;48.218;16.414;2023-02-03T12:57:17;1.75;;;0.50;;
39102;SDS011;24847;48.218;16.414;2023-02-03T13:02:28;0.63;;;0.40;;
39102;SDS011;24847;48.218;16.414;2023-02-03T13:12:43;0.75;;;0.30;;
39102;SDS011;24847;48.218;16.414;2023-02-03T13:17:51;0.85;;;0.45;;
39102;SDS011;24847;48.218;16.414;2023-02-03T13:22:58;1.98;;;0.50;;
39102;SDS011;24847;48.218;16.414;2023-02-03T13:28:04;2.40;;;0.40;;
39102;SDS011;24847;48.218;16.414;2023-02-03T13:33:30;1.55;;;0.50;;
39102;SDS011;24847;48.218;16.414;2023-02-03T13:39:07;3.07;;;1.80;;
39102;SDS011;24847;48.218;16.414;2023-02-03T13:44:27;1.38;;;0.45;;
39102;SDS011;24847;48.218;16.414;2023-02-03T13:49:32;0.70;;;0.57;;
39102;SDS011;24847;48.218;16.414;2023-02-03T13:54:36;0.52;;;0.40;;
39102;SDS011;24847;48.218;16.414;2023-02-03T13:59:44;4.28;;;0.68;;
39102;SDS011;24847;48.218;16.414;2023-02-03T14:04:52;1.30;;;0.80;;
39102;SDS011;24847;48.218;16.414;2023-02-03T14:10:13;1.73;;;0.60;;
39102;SDS011;24847;48.218;16.414;2023-02-03T14:15:27;0.70;;;0.50;;
39102;SDS011;24847;48.218;16.414;2023-02-03T14:20:56;1.70;;;0.40;;
39102;SDS011;24847;48.218;16.414;2023-02-03T14:26:17;1.45;;;0.40;;
39102;SDS011;24847;48.218;16.414;2023-02-03T14:31:24;0.90;;;0.47;;
39102;SDS011;24847;48.218;16.414;2023-02-03T14:36:48;2.28;;;1.05;;
39102;SDS011;24847;48.218;16.414;2023-02-03T14:41:55;1.52;;;0.80;;
39102;SDS011;24847;48.218;16.414;2023-02-03T14:47:09;2.10;;;0.52;;
39102;SDS011;24847;48.218;16.414;2023-02-03T14:52:25;0.73;;;0.50;;
39102;SDS011;24847;48.218;16.414;2023-02-03T14:57:45;1.30;;;0.50;;
39102;SDS011;24847;48.218;16.414;2023-02-03T15:08:36;0.60;;;0.52;;
39102;SDS011;24847;48.218;16.414;2023-02-03T15:18:52;2.67;;;0.80;;
39102;SDS011;24847;48.218;16.414;2023-02-03T15:23:58;2.75;;;1.27;;
39102;SDS011;24847;48.218;16.414;2023-02-03T15:29:01;2.63;;;1.50;;
39102;SDS011;24847;48.218;16.414;2023-02-03T15:34:08;4.70;;;1.00;;
39102;SDS011;24847;48.218;16.414;2023-02-03T15:39:29;3.15;;;1.20;;
39102;SDS011;24847;48.218;16.414;2023-02-03T15:44:42;1.23;;;0.80;;
39102;SDS011;24847;48.218;16.414;2023-02-03T15:49:58;1.55;;;0.75;;
39102;SDS011;24847;48.218;16.414;2023-02-03T15:55:14;1.08;;;0.80;;
39102;SDS011;24847;48.218;16.414;2023-02-03T16:00:28;1.98;;;0.88;;
39102;SDS011;24847;48.218;16.414;2023-02-03T16:05:37;1.42;;;0.95;;
39102;SDS011;24847;48.218;16.414;2023-02-03T16:10:42;2.00;;;0.88;;
39102;SDS011;24847;48.218;16.414;2023-02-03T16:15:55;0.95;;;0.85;;
39102;SDS011;24847;48.218;16.414;2023-02-03T16:21:01;1.02;;;0.57;;
39102;SDS011;24847;48.218;16.414;2023-02-03T16:26:15;1.48;;;0.70;;
39102;SDS011;24847;48.218;16.414;2023-02-03T16:31:20;1.13;;;0.70;;
39102;SDS011;24847;48.218;16.414;2023-02-03T16:36:40;1.52;;;0.80;;
39102;SDS011;24847;48.218;16.414;2023-02-03T16:42:06;1.65;;;0.90;;
39102;SDS011;24847;48.218;16.414;2023-02-03T16:47:33;1.40;;;0.82;;
39102;SDS011;24847;48.218;16.414;2023-02-03T16:52:56;1.00;;;0.55;;
39102;SDS011;24847;48.218;16.414;2023-02-03T16:58:00;1.15;;;0.50;;
39102;SDS011;24847;48.218;16.414;2023-02-03T17:03:03;1.38;;;0.55;;
39102;SDS011;24847;48.218;16.414;2023-02-03T17:08:06;0.88;;;0.70;;
39102;SDS011;24847;48.218;16.414;2023-02-03T17:13:11;1.15;;;0.73;;
39102;SDS011;24847;48.218;16.414;2023-02-03T17:18:14;1.00;;;0.68;;
39102;SDS011;24847;48.218;16.414;2023-02-03T17:23:17;1.48;;;0.90;;
39102;SDS011;24847;48.218;16.414;2023-02-03T17:28:22;0.77;;;0.63;;
39102;SDS011;24847;48.218;16.414;2023-02-03T17:38:29;1.40;;;0.82;;
39102;SDS011;24847;48.218;16.414;2023-02-03T17:43:37;1.60;;;1.20;;
39102;SDS011;24847;48.218;16.414;2023-02-03T17:48:40;0.85;;;0.75;;
39102;SDS011;24847;48.218;16.414;2023-02-03T17:53:43;1.00;;;0.70;;
39102;SDS011;24847;48.218;16.414;2023-02-03T17:58:48;1.55;;;0.98;;
39102;SDS011;24847;48.218;16.414;2023-02-03T18:03:56;1.23;;;0.70;;
39102;SDS011;24847;48.218;16.414;2023-02-03T18:09:01;2.05;;;0.70;;
39102;SDS011;24847;48.218;16.414;2023-02-03T18:14:08;0.93;;;0.70;;
39102;SDS011;24847;48.218;16.414;2023-02-03T18:19:13;1.27;;;0.70;;
39102;SDS011;24847;48.218;16.414;2023-02-03T18:24:16;1.40;;;0.63;;
39102;SDS011;24847;48.218;16.414;2023-02-03T18:29:23;1.00;;;0.77;;
39102;SDS011;24847;48.218;16.414;2023-02-03T18:34:26;0.90;;;0.50;;
39102;SDS011;24847;48.218;16.414;2023-02-03T18:39:30;1.60;;;1.02;;
39102;SDS011;24847;48.218;16.414;2023-02-03T18:44:35;0.60;;;0.30;;
39102;SDS011;24847;48.218;16.414;2023-02-03T18:49:40;0.35;;;0.28;;
39102;SDS011;24847;48.218;16.414;2023-02-03T18:54:44;0.98;;;0.70;;
39102;SDS011;24847;48.218;16.414;2023-02-03T18:59:49;0.85;;;0.40;;
39102;SDS011;24847;48.218;16.414;2023-02-03T19:04:53;1.20;;;0.70;;
39102;SDS011;24847;48.218;16.414;2023-02-03T19:09:57;1.00;;;0.50;;
39102;SDS011;24847;48.218;16.414;2023-02-03T19:15:03;1.30;;;0.70;;
39102;SDS011;24847;48.218;16.414;2023-02-03T19:20:09;0.95;;;0.50;;
39102;SDS011;24847;48.218;16.414;2023-02-03T19:25:14;2.00;;;0.60;;
39102;SDS011;24847;48.218;16.414;2023-02-03T19:30:20;0.70;;;0.35;;
39102;SDS011;24847;48.218;16.414;2023-02-03T19:35:25;0.88;;;0.30;;
39102;SDS011;24847;48.218;16.414;2023-02-03T19:40:29;0.75;;;0.30;;
39102;SDS011;24847;48.218;16.414;2023-02-03T19:45:38;0.82;;;0.30;;
39102;SDS011;24847;48.218;16.414;2023-02-03T19:50:42;0.80;;;0.40;;
39102;SDS011;24847;48.218;16.414;2023-02-03T19:55:46;0.60;;;0.43;;
39102;SDS011;24847;48.218;16.414;2023-02-03T20:00:52;1.30;;;0.57;;
39102;SDS011;24847;48.218;16.414;2023-02-03T20:05:55;1.20;;;0.70;;
39102;SDS011;24847;48.218;16.414;2023-02-03T20:10:59;1.63;;;1.00;;
39102;SDS011;24847;48.218;16.414;2023-02-03T20:16:06;2.22;;;0.80;;
39102;SDS011;24847;48.218;16.414;2023-02-03T20:21:11;2.25;;;0.70;;
39102;SDS011;24847;48.218;16.414;2023-02-03T20:26:16;1.40;;;0.70;;
39102;SDS011;24847;48.218;16.414;2023-02-03T20:31:20;3.20;;;1.65;;
39102;SDS011;24847;48.218;16.414;2023-02-03T20:36:27;3.60;;;1.55;;
39102;SDS011;24847;48.218;16.414;2023-02-03T20:41:32;1.05;;;0.70;;
39102;SDS011;24847;48.218;16.414;2023-02-03T20:46:37;0.98;;;0.68;;
39102;SDS011;24847;48.218;16.414;2023-02-03T20:51:43;1.48;;;0.52;;
39102;SDS011;24847;48.218;16.414;2023-02-03T20:56:48;2.10;;;0.70;;
39102;SDS011;24847;48.218;16.414;2023-02-03T21:01:53;2.85;;;0.50;;
39102;SDS011;24847;48.218;16.414;2023-02-03T21:07:09;1.73;;;0.60;;
39102;SDS011;24847;48.218;16.414;2023-02-03T21:12:18;1.75;;;0.60;;
39102;SDS011;24847;48.218;16.414;2023-02-03T21:17:24;2.78;;;0.80;;
39102;SDS011;24847;48.218;16.414;2023-02-03T21:22:29;1.98;;;0.80;;
39102;SDS011;24847;48.218;16.414;2023-02-03T21:27:36;3.72;;;1.30;;
39102;SDS011;24847;48.218;16.414;2023-02-03T21:32:41;3.50;;;1.10;;
39102;SDS011;24847;48.218;16.414;2023-02-03T21:37:46;2.72;;;0.68;;
39102;SDS011;24847;48.218;16.414;2023-02-03T21:42:50;3.53;;;0.95;;
39102;SDS011;24847;48.218;16.414;2023-02-03T21:47:55;2.85;;;0.80;;
39102;SDS011;24847;48.218;16.414;2023-02-03T21:53:01;2.75;;;0.90;;
39102;SDS011;24847;48.218;16.414;2023-02-03T21:58:26;2.60;;;1.00;;
39102;SDS011;24847;48.218;16.414;2023-02-03T22:03:33;3.90;;;1.27;;
39102;SDS011;24847;48.218;16.414;2023-02-03T22:08:43;4.13;;;1.17;;
39102;SDS011;24847;48.218;16.414;2023-02-03T22:13:48;2.78;;;1.00;;
39102;SDS011;24847;48.218;16.414;2023-02-03T22:18:52;3.88;;;0.80;;
39102;SDS011;24847;48.218;16.414;2023-02-03T22:23:54;2.50;;;0.60;;
39102;SDS011;24847;48.218;16.414;2023-02-03T22:28:57;1.95;;;0.63;;
39102;SDS011;24847;48.218;16.414;2023-02-03T22:34:02;3.35;;;0.90;;
39102;SDS011;24847;48.218;16.414;2023-02-03T22:39:05;1.40;;;0.60;;
39102;SDS011;24847;48.218;16.414;2023-02-03T22:44:07;2.20;;;0.70;;
39102;SDS011;24847;48.218;16.414;2023-02-03T22:49:16;2.30;;;0.77;;
39102;SDS011;24847;48.218;16.414;2023-02-03T22:54:21;3.53;;;0.93;;
39102;SDS011;24847;48.218;16.414;2023-02-03T22:59:23;2.13;;;0.85;;
39102;SDS011;24847;48.218;16.414;2023-02-03T23:04:27;1.77;;;0.70;;
39102;SDS011;24847;48.218;16.414;2023-02-03T23:09:29;2.05;;;0.80;;
39102;SDS011;24847;48.218;16.414;2023-02-03T23:14:31;3.22;;;1.10;;
39102;SDS011;24847;48.218;16.414;2023-02-03T23:19:36;3.42;;;1.35;;
39102;SDS011;24847;48.218;16.414;2023-02-03T23:24:38;3.30;;;1.10;;
39102;SDS011;24847;48.218;16.414;2023-02-03T23:29:40;3.67;;;1.05;;
39102;SDS011;24847;48.218;16.414;2023-02-03T23:34:44;6.22;;;1.52;;
39102;SDS011;24847;48.218;16.414;2023-02-03T23:40:04;2.75;;;0.98;;
39102;SDS011;24847;48.218;16.414;2023-02-03T23:45:08;2.92;;;0.82;;
39102;SDS011;24847;48.218;16.414;2023-02-03T23:50:14;3.15;;;1.00;;
39102;SDS011;24847;48.218;16.414;2023-02-03T23:55:18;3.00;;;1.00;;
